Terminal Aerodrome Forecast
Issued by NWS

Home | Current Version | Previous Version | Graphics & Text | Print | Product List | Glossary On
Versions: 1 2 3 4 5 6 7 8 9 10 11 12 13 14 15
000
FTUS42 KMHX 301741
TAFOAJ
TAF
KOAJ 301741Z 3018/0118 23009G16KT P6SM SCT060
     FM010200 19008KT P6SM VCSH BKN060
     FM010800 23005KT P6SM BKN120
      AMD LTD TO CLD VIS AND WIND=

USA.gov is the U.S. government's official web portal to all federal, state and local government web resources and services.